Time;durP1;ratioP1;P1;durP2;ratioP2;P2;SDS_P1;SDS_P2;PMS_P1;PMS_P2;Temp;Humidity;BMP_temperature;BMP_pressure;BME280_temperature;BME280_humidity;BME280_pressure;Samples;Min_cycle;Max_cycle;Signal;HPM_P1;HPM_P2
2023/06/26 00:01:32;;;;;;;3.13;0.50;;;;;;;20.95;100.00;94994.56;5072515;28;20444;-59
2023/06/26 00:04:01;;;;;;;0.73;0.57;;;;;;;20.95;100.00;95005.34;5072004;28;20456;-59
2023/06/26 00:06:31;;;;;;;0.50;0.47;;;;;;;21.10;100.00;94993.09;5072484;28;20661;-59
2023/06/26 00:08:59;;;;;;;0.40;0.20;;;;;;;21.01;100.00;94985.13;5072210;28;20433;-59
2023/06/26 00:11:30;;;;;;;0.80;0.80;;;;;;;20.58;100.00;94991.19;5072122;28;20556;-59
2023/06/26 00:14:00;;;;;;;0.80;0.80;;;;;;;20.66;100.00;94992.97;5071944;28;20478;-59
2023/06/26 00:16:28;;;;;;;0.80;0.80;;;;;;;20.85;100.00;94992.34;5072072;28;20429;-60
2023/06/26 00:18:57;;;;;;;0.60;0.60;;;;;;;20.89;100.00;94998.63;5071715;28;20829;-59
2023/06/26 00:21:25;;;;;;;0.60;0.40;;;;;;;20.95;100.00;95001.88;5071635;28;20480;-59
2023/06/26 00:23:55;;;;;;;1.07;0.40;;;;;;;21.01;100.00;95001.28;5071966;28;20437;-59
2023/06/26 00:26:24;;;;;;;0.40;0.33;;;;;;;21.03;100.00;95003.63;5071612;28;21000;-60
2023/06/26 00:28:52;;;;;;;1.40;0.70;;;;;;;21.02;100.00;94997.47;5071694;28;20491;-59
2023/06/26 00:31:21;;;;;;;1.00;0.60;;;;;;;20.92;100.00;95004.09;5071520;28;20938;-59
2023/06/26 00:33:49;;;;;;;0.80;0.40;;;;;;;20.88;100.00;94994.38;5072154;28;20499;-59
2023/06/26 00:36:17;;;;;;;1.77;0.60;;;;;;;20.74;100.00;95002.06;5071949;28;20445;-59
2023/06/26 00:38:46;;;;;;;0.97;0.87;;;;;;;20.25;100.00;94998.63;5071661;28;20441;-60
2023/06/26 00:41:15;;;;;;;2.93;0.70;;;;;;;19.77;100.00;94991.31;5071236;28;20445;-60
2023/06/26 00:43:44;;;;;;;1.03;0.80;;;;;;;19.72;100.00;95002.28;5072094;28;20505;-60
2023/06/26 00:46:14;;;;;;;1.10;1.00;;;;;;;19.99;100.00;94998.16;5071089;28;20445;-60
2023/06/26 00:48:44;;;;;;;1.90;0.77;;;;;;;19.82;100.00;95001.84;5071464;28;20918;-61
2023/06/26 00:51:14;;;;;;;0.93;0.80;;;;;;;19.68;100.00;95001.41;5071334;28;20491;-61
2023/06/26 00:53:43;;;;;;;0.93;0.70;;;;;;;19.63;100.00;94980.84;5070721;28;20524;-61
2023/06/26 00:56:12;;;;;;;1.10;0.97;;;;;;;19.44;100.00;94988.69;5071200;28;20957;-61
2023/06/26 00:58:42;;;;;;;4.83;1.30;;;;;;;19.17;100.00;94994.63;5071577;28;20949;-61
2023/06/26 01:01:14;;;;;;;2.50;0.60;;;;;;;19.32;100.00;94998.59;5071248;28;20435;-61
2023/06/26 01:03:43;;;;;;;0.73;0.50;;;;;;;19.69;100.00;94991.41;5071255;28;20448;-61
2023/06/26 01:06:13;;;;;;;1.13;1.10;;;;;;;20.07;100.00;94989.97;5045255;28;20495;-61
2023/06/26 01:08:43;;;;;;;3.37;0.30;;;;;;;20.28;100.00;94995.28;5071411;28;20870;-61
2023/06/26 01:11:13;;;;;;;0.50;0.40;;;;;;;20.39;100.00;94992.91;5070946;28;20535;-62
2023/06/26 01:13:45;;;;;;;0.70;0.70;;;;;;;20.20;100.00;94983.47;5072301;28;20510;-61
2023/06/26 01:16:19;;;;;;;0.40;0.30;;;;;;;20.28;100.00;94984.50;5071887;28;20504;-61
2023/06/26 01:18:48;;;;;;;1.73;1.63;;;;;;;20.36;100.00;94982.81;5070759;28;20519;-60
2023/06/26 01:21:19;;;;;;;0.60;0.50;;;;;;;20.48;100.00;94978.19;5071329;28;20473;-61
2023/06/26 01:24:06;;;;;;;0.50;0.50;;;;;;;20.40;100.00;94972.94;5071134;28;20437;-61
2023/06/26 01:26:37;;;;;;;1.10;0.60;;;;;;;19.84;100.00;94972.72;5071452;28;20813;-61
2023/06/26 01:29:08;;;;;;;1.07;0.87;;;;;;;20.03;100.00;94974.84;5071399;28;20435;-62
2023/06/26 01:31:37;;;;;;;1.23;0.87;;;;;;;19.96;100.00;94967.31;5070764;28;20491;-60
2023/06/26 01:34:07;;;;;;;0.87;0.87;;;;;;;20.30;100.00;94966.13;5071570;28;20896;-60
2023/06/26 01:36:35;;;;;;;0.70;0.50;;;;;;;20.41;100.00;94967.22;5071063;28;20442;-60
2023/06/26 01:39:09;;;;;;;0.50;0.40;;;;;;;20.37;100.00;94966.31;5071281;28;20862;-61
2023/06/26 01:41:39;;;;;;;0.77;0.40;;;;;;;20.37;100.00;94952.06;5071030;28;20980;-61
2023/06/26 01:44:26;;;;;;;0.60;0.40;;;;;;;20.38;100.00;94945.56;5071077;28;20495;-61
2023/06/26 01:47:02;;;;;;;0.50;0.40;;;;;;;20.46;100.00;94956.22;5071374;28;20437;-61
2023/06/26 01:49:42;;;;;;;0.70;0.70;;;;;;;20.50;100.00;94959.00;5070801;28;20515;-61
2023/06/26 01:52:20;;;;;;;1.47;1.20;;;;;;;19.69;100.00;94967.19;5071343;28;20437;-61
2023/06/26 01:54:56;;;;;;;0.87;0.83;;;;;;;19.22;100.00;94966.75;5045857;28;20494;-61
2023/06/26 01:57:28;;;;;;;0.90;0.90;;;;;;;19.30;100.00;94955.91;5070838;28;20441;-60
2023/06/26 01:59:58;;;;;;;4.43;1.27;;;;;;;19.52;100.00;94962.81;5070813;28;20477;-60
2023/06/26 02:02:27;;;;;;;1.27;1.27;;;;;;;19.87;100.00;94963.19;5071043;28;20854;-61
2023/06/26 02:04:55;;;;;;;1.03;0.50;;;;;;;19.99;100.00;94965.88;5070864;28;20444;-61
2023/06/26 02:07:23;;;;;;;2.23;0.53;;;;;;;19.99;100.00;94938.97;5070059;28;20941;-60
2023/06/26 02:09:52;;;;;;;1.03;0.47;;;;;;;20.24;100.00;94959.38;5071066;28;20441;-60
2023/06/26 02:12:20;;;;;;;0.80;0.73;;;;;;;20.37;100.00;94960.16;5070666;28;20438;-60
2023/06/26 02:14:51;;;;;;;0.67;0.67;;;;;;;20.49;100.00;94957.44;5071007;28;20445;-60
2023/06/26 02:17:19;;;;;;;0.83;0.70;;;;;;;20.56;100.00;94958.44;5070278;28;20445;-60
2023/06/26 02:19:48;;;;;;;0.97;0.33;;;;;;;20.47;100.00;94938.94;5070628;28;20861;-60
2023/06/26 02:22:17;;;;;;;1.00;0.80;;;;;;;20.63;100.00;94960.56;5074556;28;20445;-59
2023/06/26 02:24:45;;;;;;;0.83;0.77;;;;;;;20.60;100.00;94953.16;5074586;28;20492;-60
2023/06/26 02:27:13;;;;;;;0.80;0.80;;;;;;;20.47;100.00;94954.28;5073993;28;20445;-59
2023/06/26 02:29:43;;;;;;;0.80;0.80;;;;;;;20.24;100.00;94960.16;5074123;28;20441;-59
2023/06/26 02:32:13;;;;;;;0.53;0.40;;;;;;;19.75;100.00;94955.13;5073817;28;20437;-60
2023/06/26 02:34:41;;;;;;;1.10;0.43;;;;;;;19.02;100.00;94971.81;5073924;28;20477;-59
2023/06/26 02:37:10;;;;;;;1.33;1.33;;;;;;;18.68;100.00;94965.97;5074039;28;20437;-60
2023/06/26 02:39:38;;;;;;;0.60;0.60;;;;;;;18.82;100.00;94969.94;5073799;28;20449;-60
2023/06/26 02:42:07;;;;;;;2.17;2.07;;;;;;;18.85;100.00;94971.19;5074222;28;20828;-61
2023/06/26 02:44:35;;;;;;;0.60;0.60;;;;;;;18.88;100.00;94967.84;5074217;28;20473;-61
2023/06/26 02:47:04;;;;;;;0.80;0.47;;;;;;;19.10;100.00;94972.84;5073907;28;20506;-61
2023/06/26 02:49:34;;;;;;;0.50;0.40;;;;;;;19.28;100.00;94981.53;5073365;28;20954;-60
2023/06/26 02:52:02;;;;;;;0.97;0.97;;;;;;;19.35;100.00;94971.84;5073688;28;20468;-61
2023/06/26 02:54:30;;;;;;;0.70;0.70;;;;;;;19.30;100.00;94968.56;5073297;28;20433;-61
2023/06/26 02:56:59;;;;;;;0.50;0.40;;;;;;;19.31;100.00;94956.69;5073951;28;20468;-62
2023/06/26 02:59:27;;;;;;;0.73;0.70;;;;;;;19.57;100.00;94974.16;5073457;28;20452;-61
2023/06/26 03:01:56;;;;;;;0.80;0.80;;;;;;;19.73;100.00;94981.56;5073594;28;20496;-61
2023/06/26 03:04:24;;;;;;;0.67;0.50;;;;;;;19.71;100.00;94975.75;5073261;28;20494;-61
2023/06/26 03:06:54;;;;;;;0.47;0.47;;;;;;;19.93;100.00;94978.00;5073306;28;20942;-59
2023/06/26 03:09:22;;;;;;;0.60;0.47;;;;;;;19.94;100.00;94977.66;5073639;28;20512;-61
2023/06/26 03:11:52;;;;;;;0.50;0.40;;;;;;;19.95;100.00;94973.06;5073024;28;20985;-58
2023/06/26 03:14:22;;;;;;;0.50;0.40;;;;;;;19.85;100.00;94966.22;5073274;28;20565;-61
2023/06/26 03:16:52;;;;;;;1.07;0.97;;;;;;;19.91;100.00;94972.94;5073455;28;20442;-53
2023/06/26 03:19:21;;;;;;;3.03;1.03;;;;;;;19.81;100.00;94978.75;5072977;28;20956;-55
2023/06/26 03:21:49;;;;;;;0.53;0.40;;;;;;;19.97;100.00;94982.34;5073236;28;20554;-55
2023/06/26 03:24:19;;;;;;;0.97;0.97;;;;;;;20.13;100.00;94994.03;5072929;28;20521;-55
2023/06/26 03:26:47;;;;;;;0.90;0.83;;;;;;;20.42;100.00;94979.53;5073322;28;20529;-54
2023/06/26 03:29:16;;;;;;;1.13;1.13;;;;;;;20.57;100.00;94978.06;5072996;28;20960;-55
2023/06/26 03:31:44;;;;;;;1.17;0.70;;;;;;;20.52;100.00;94970.22;5072290;28;20433;-55
2023/06/26 03:34:12;;;;;;;1.80;0.97;;;;;;;20.72;100.00;94972.75;5072986;28;20472;-55
2023/06/26 03:36:41;;;;;;;1.17;0.77;;;;;;;20.75;100.00;94971.28;5072438;28;20797;-56
2023/06/26 03:39:09;;;;;;;1.47;1.37;;;;;;;20.96;100.00;94971.09;5072841;28;20437;-57
2023/06/26 03:41:39;;;;;;;8.70;1.03;;;;;;;21.28;100.00;94972.78;5072535;28;20473;-56
2023/06/26 03:44:07;;;;;;;0.87;0.50;;;;;;;21.24;100.00;94980.00;5072813;28;20949;-55
2023/06/26 03:46:35;;;;;;;1.40;0.83;;;;;;;21.42;100.00;94973.16;5072818;28;20480;-56
2023/06/26 03:49:04;;;;;;;0.93;0.80;;;;;;;21.44;100.00;94971.69;5072505;28;20438;-56
2023/06/26 03:51:32;;;;;;;1.37;0.90;;;;;;;21.52;100.00;94951.88;5072528;28;20483;-55
2023/06/26 03:54:00;;;;;;;0.70;0.70;;;;;;;21.56;100.00;94956.56;5072720;28;20437;-56
2023/06/26 03:56:29;;;;;;;0.50;0.30;;;;;;;21.54;100.00;94938.03;5072583;28;20438;-56
2023/06/26 03:58:58;;;;;;;0.60;0.40;;;;;;;21.70;100.00;94955.03;5072593;28;20433;-55
2023/06/26 04:01:27;;;;;;;0.50;0.43;;;;;;;21.71;100.00;94966.56;5071980;28;21081;-55
2023/06/26 04:03:55;;;;;;;1.07;0.40;;;;;;;21.87;100.00;94972.78;5072187;28;20438;-56
2023/06/26 04:06:24;;;;;;;0.60;0.60;;;;;;;21.74;100.00;94972.06;5072530;28;20533;-56
2023/06/26 04:08:52;;;;;;;0.97;0.87;;;;;;;21.91;100.00;94976.34;5072221;28;20433;-56
2023/06/26 04:11:21;;;;;;;11.03;1.30;;;;;;;21.85;100.00;94964.25;5072335;28;20487;-57
2023/06/26 04:13:49;;;;;;;2.90;0.70;;;;;;;21.52;100.00;94973.44;5072061;28;20433;-57
2023/06/26 04:16:20;;;;;;;1.47;0.90;;;;;;;21.15;100.00;94980.13;5072298;28;20446;-57
2023/06/26 04:18:49;;;;;;;1.67;1.57;;;;;;;20.28;100.00;94984.50;5072313;28;20429;-58
2023/06/26 04:21:17;;;;;;;0.97;0.97;;;;;;;20.44;100.00;94982.69;5071387;28;20981;-57
2023/06/26 04:23:47;;;;;;;2.43;0.80;;;;;;;21.13;100.00;94979.69;5072278;28;20441;-58
2023/06/26 04:26:15;;;;;;;0.63;0.60;;;;;;;21.42;100.00;94973.16;5072343;28;20473;-58
2023/06/26 04:28:44;;;;;;;0.60;0.60;;;;;;;21.19;100.00;94907.47;5072002;28;20430;-58
2023/06/26 04:31:12;;;;;;;0.97;0.60;;;;;;;21.78;100.00;94967.53;5071653;28;20449;-59
2023/06/26 04:33:42;;;;;;;0.40;0.27;;;;;;;21.84;100.00;94954.56;5071552;28;20529;-57
2023/06/26 04:36:11;;;;;;;0.50;0.50;;;;;;;21.99;100.00;94957.28;5071830;28;20473;-58
2023/06/26 04:38:39;;;;;;;0.40;0.30;;;;;;;21.35;100.00;94882.09;5071920;28;20437;-58
2023/06/26 04:41:07;;;;;;;0.93;0.93;;;;;;;21.82;100.00;94959.53;5071513;28;20470;-58
2023/06/26 04:43:36;;;;;;;2.40;0.80;;;;;;;22.07;100.00;94959.03;5071424;28;20425;-59
2023/06/26 04:46:04;;;;;;;0.70;0.60;;;;;;;22.27;100.00;94957.16;5071671;28;20445;-59
2023/06/26 04:48:33;;;;;;;0.80;0.80;;;;;;;22.39;100.00;94954.34;5071447;28;20892;-59
2023/06/26 04:51:03;;;;;;;1.33;1.23;;;;;;;22.39;100.00;94913.84;5071530;28;20437;-59
2023/06/26 04:53:32;;;;;;;2.17;1.97;;;;;;;22.77;100.00;94966.38;5071665;28;20442;-60
2023/06/26 04:56:00;;;;;;;6.73;0.50;;;;;;;22.87;100.00;94960.44;5071428;28;20444;-61
2023/06/26 04:58:28;;;;;;;0.80;0.80;;;;;;;23.11;100.00;94960.91;5071709;28;21034;-61
2023/06/26 05:00:58;;;;;;;0.40;0.30;;;;;;;23.02;100.00;94959.56;5071511;28;20946;-61
2023/06/26 05:03:27;;;;;;;0.90;0.90;;;;;;;23.10;100.00;94969.34;5071969;28;20481;-61
2023/06/26 05:05:55;;;;;;;1.07;0.40;;;;;;;22.95;100.00;94971.00;5071523;28;20442;-62
2023/06/26 05:08:27;;;;;;;1.73;0.70;;;;;;;22.93;100.00;94948.16;5071373;28;20859;-62
2023/06/26 05:10:57;;;;;;;0.70;0.70;;;;;;;23.18;100.00;94955.63;5070960;28;20836;-62
2023/06/26 05:13:26;;;;;;;0.70;0.70;;;;;;;22.87;100.00;94963.88;5071475;28;20496;-60
2023/06/26 05:15:54;;;;;;;1.17;1.07;;;;;;;21.95;100.00;94980.72;5046052;28;20441;-61
2023/06/26 05:18:22;;;;;;;6.83;1.17;;;;;;;21.99;100.00;94978.09;5058877;28;20506;-62
2023/06/26 05:20:51;;;;;;;1.10;0.93;;;;;;;21.78;100.00;94974.88;5070894;28;20469;-62
2023/06/26 05:23:21;;;;;;;3.10;1.37;;;;;;;21.82;100.00;94962.22;5071142;28;21130;-61
2023/06/26 05:25:52;;;;;;;1.77;0.80;;;;;;;22.07;100.00;94971.75;5071433;28;20839;-63
2023/06/26 05:28:20;;;;;;;1.97;1.83;;;;;;;22.47;100.00;94964.16;5071896;28;20442;-62
2023/06/26 05:30:49;;;;;;;0.90;0.77;;;;;;;22.69;100.00;94960.06;5071910;28;20453;-63
2023/06/26 05:33:19;;;;;;;0.70;0.60;;;;;;;22.42;100.00;94896.94;5070561;28;20438;-62
2023/06/26 05:35:49;;;;;;;3.73;1.77;;;;;;;22.75;100.00;94959.41;5071585;28;20429;-63
2023/06/26 05:38:18;;;;;;;19.73;0.60;;;;;;;22.54;100.00;94956.22;5071315;28;20480;-51
2023/06/26 05:40:47;;;;;;;2.10;0.57;;;;;;;22.75;100.00;94959.41;5071061;28;20445;-51
2023/06/26 05:43:20;;;;;;;1.90;1.80;;;;;;;22.66;100.00;94961.53;5071074;28;20493;-51
2023/06/26 05:45:54;;;;;;;1.80;1.70;;;;;;;23.21;100.00;94971.16;5071014;28;20473;-52
2023/06/26 05:48:23;;;;;;;1.07;1.07;;;;;;;22.71;100.00;94966.66;5071064;28;20438;-52
2023/06/26 05:50:52;;;;;;;0.90;0.90;;;;;;;22.95;100.00;94967.50;5070792;28;20532;-52
2023/06/26 05:53:21;;;;;;;7.50;2.00;;;;;;;22.96;100.00;94961.78;5070731;28;20450;-51
2023/06/26 05:55:50;;;;;;;1.73;1.63;;;;;;;22.96;100.00;94960.97;5058741;28;20450;-51
2023/06/26 05:58:22;;;;;;;8.33;2.00;;;;;;;22.92;100.00;94965.53;5075069;28;20438;-52
2023/06/26 06:00:50;;;;;;;1.47;1.47;;;;;;;23.04;100.00;94957.28;5074425;28;20925;-52
2023/06/26 06:03:19;;;;;;;0.73;0.73;;;;;;;22.98;100.00;94961.41;5074720;28;20571;-51
2023/06/26 06:05:47;;;;;;;1.20;1.10;;;;;;;23.22;100.00;94951.09;5074652;28;20487;-52
2023/06/26 06:08:16;;;;;;;1.27;1.20;;;;;;;23.41;100.00;94952.22;5074912;28;20518;-52
2023/06/26 06:10:44;;;;;;;2.53;1.57;;;;;;;23.60;100.00;94952.97;5074165;28;20457;-52
2023/06/26 06:13:12;;;;;;;2.07;1.40;;;;;;;23.69;100.00;94953.50;5074376;28;20464;-52
2023/06/26 06:15:42;;;;;;;2.70;1.27;;;;;;;24.21;100.00;94954.75;5074420;28;20441;-52
2023/06/26 06:18:11;;;;;;;4.00;0.73;;;;;;;24.39;100.00;94934.91;5074483;28;20441;-52
2023/06/26 06:20:39;;;;;;;1.53;0.80;;;;;;;24.54;100.00;94950.19;5073930;28;20433;-52
2023/06/26 06:23:07;;;;;;;1.30;1.23;;;;;;;24.71;100.00;94945.41;5073177;28;20468;-52
2023/06/26 06:25:36;;;;;;;1.37;1.37;;;;;;;24.85;100.00;94949.09;5073985;28;21037;-52
2023/06/26 06:28:05;;;;;;;0.90;0.90;;;;;;;25.30;100.00;94941.88;5074277;28;20459;-53
2023/06/26 06:30:34;;;;;;;0.93;0.87;;;;;;;25.06;100.00;94943.94;5047527;28;20469;-53
2023/06/26 06:33:15;;;;;;;1.13;1.07;;;;;;;25.02;100.00;94943.09;5073218;28;21145;-53
2023/06/26 06:35:43;;;;;;;2.50;1.60;;;;;;;24.65;100.00;94947.63;5073700;28;20450;-53
2023/06/26 06:38:11;;;;;;;2.10;1.00;;;;;;;25.01;100.00;94946.97;5073833;28;20438;-53
2023/06/26 06:40:40;;;;;;;1.00;1.00;;;;;;;25.40;100.00;94941.97;5073962;28;20448;-52
2023/06/26 06:43:08;;;;;;;1.90;1.80;;;;;;;25.44;100.00;94926.53;5073373;28;20470;-52
2023/06/26 06:45:37;;;;;;;1.17;1.00;;;;;;;25.44;95.90;94934.66;5073854;28;20869;-52
2023/06/26 06:48:06;;;;;;;1.87;1.77;;;;;;;25.92;96.26;94927.38;5073943;28;20527;-51
2023/06/26 06:50:36;;;;;;;11.80;2.20;;;;;;;26.08;94.00;94927.91;5073750;28;20456;-52
2023/06/26 06:53:05;;;;;;;1.90;1.00;;;;;;;26.42;94.09;94921.16;5073615;28;20438;-52
2023/06/26 06:55:33;;;;;;;1.63;1.53;;;;;;;25.82;92.69;94933.50;5073798;28;20519;-52
2023/06/26 06:58:02;;;;;;;1.53;0.80;;;;;;;25.88;95.62;94940.16;5073404;28;20434;-52
2023/06/26 07:00:33;;;;;;;3.67;1.20;;;;;;;25.82;97.49;94934.28;5073745;28;20516;-52
2023/06/26 07:03:01;;;;;;;1.10;1.07;;;;;;;26.73;93.31;94924.44;5073255;28;21036;-53
2023/06/26 07:05:30;;;;;;;0.80;0.80;;;;;;;27.38;87.34;94927.00;5073292;28;20437;-53
2023/06/26 07:07:59;;;;;;;0.70;0.70;;;;;;;27.21;82.22;94925.81;5073308;28;20465;-53
2023/06/26 07:10:30;;;;;;;3.63;1.43;;;;;;;26.65;82.93;94926.31;5072836;28;20465;-54
2023/06/26 07:12:58;;;;;;;1.53;1.43;;;;;;;26.43;82.99;94933.59;5073048;28;20453;-54
2023/06/26 07:15:26;;;;;;;0.70;0.70;;;;;;;26.62;84.42;94927.09;5073038;28;20437;-55
2023/06/26 07:17:55;;;;;;;1.63;1.53;;;;;;;27.36;82.79;94929.34;5073171;28;20441;-54
2023/06/26 07:20:23;;;;;;;1.47;1.10;;;;;;;26.84;82.55;94922.56;5072988;28;20442;-54
2023/06/26 07:22:53;;;;;;;1.57;1.47;;;;;;;27.39;79.85;94921.25;5072491;28;20878;-53
2023/06/26 07:25:23;;;;;;;1.23;1.07;;;;;;;28.08;77.44;94916.25;5072422;28;20446;-53
2023/06/26 07:27:51;;;;;;;2.07;1.33;;;;;;;27.83;75.68;94911.97;5072963;28;20437;-54
2023/06/26 07:30:20;;;;;;;1.27;1.17;;;;;;;27.77;75.23;94916.22;5072817;28;20933;-54
2023/06/26 07:32:48;;;;;;;1.40;1.17;;;;;;;27.96;73.31;94916.63;5073179;28;20465;-53
2023/06/26 07:35:17;;;;;;;1.47;1.00;;;;;;;28.32;74.73;94909.22;5072537;28;20495;-53
2023/06/26 07:37:46;;;;;;;1.53;1.43;;;;;;;27.79;75.55;94892.09;5072480;28;21017;-53
2023/06/26 07:40:17;;;;;;;6.50;0.73;;;;;;;28.57;74.97;94906.44;5047285;28;20449;-53
2023/06/26 07:42:47;;;;;;;3.47;1.57;;;;;;;28.56;72.66;94904.91;5072576;28;20965;-53
2023/06/26 07:45:16;;;;;;;1.47;0.93;;;;;;;28.34;72.78;94917.78;5072558;28;20953;-53
2023/06/26 07:47:45;;;;;;;1.20;1.10;;;;;;;28.24;74.61;94913.13;5072477;28;20495;-53
2023/06/26 07:50:15;;;;;;;0.90;0.90;;;;;;;28.40;76.01;94921.69;5073056;28;20873;-53
2023/06/26 07:52:44;;;;;;;1.43;1.33;;;;;;;27.95;74.35;94919.75;5072565;28;20465;-53
2023/06/26 07:55:12;;;;;;;4.50;1.07;;;;;;;28.43;74.75;94923.63;5071690;28;20437;-53
2023/06/26 07:57:40;;;;;;;0.63;0.50;;;;;;;29.09;72.30;94923.84;5072140;28;20472;-53
2023/06/26 08:00:12;;;;;;;1.33;1.30;;;;;;;27.68;72.26;94930.22;5072563;28;20937;-53
2023/06/26 08:02:40;;;;;;;1.77;1.67;;;;;;;28.72;70.59;94924.34;5072072;28;20438;-52
2023/06/26 08:05:08;;;;;;;0.80;0.80;;;;;;;29.69;68.78;94920.78;5072820;28;20434;-52
2023/06/26 08:07:37;;;;;;;1.33;0.67;;;;;;;30.74;65.13;94916.38;5072261;28;20430;-52
2023/06/26 08:10:06;;;;;;;0.70;0.40;;;;;;;30.49;62.80;94916.66;5072437;28;20437;-53
2023/06/26 08:12:36;;;;;;;0.77;0.77;;;;;;;30.16;63.76;94901.72;5072400;28;20463;-53
2023/06/26 08:15:04;;;;;;;0.97;0.77;;;;;;;30.31;62.87;94918.00;5072544;28;20440;-52
2023/06/26 08:17:35;;;;;;;1.97;1.87;;;;;;;30.73;63.00;94903.91;5071630;28;20502;-51
2023/06/26 08:20:05;;;;;;;4.70;0.80;;;;;;;31.57;60.08;94898.59;5071525;28;20476;-51
2023/06/26 08:22:33;;;;;;;0.50;0.50;;;;;;;30.77;59.65;94899.94;5072140;28;20475;-53
2023/06/26 08:25:02;;;;;;;1.23;1.10;;;;;;;29.40;61.61;94899.13;5071399;28;20571;-52
2023/06/26 08:27:31;;;;;;;1.40;0.87;;;;;;;29.46;61.30;94905.72;5071708;28;20440;-52
2023/06/26 08:29:59;;;;;;;0.70;0.70;;;;;;;30.74;60.57;94903.50;5071444;28;20949;-51
2023/06/26 08:32:27;;;;;;;0.50;0.30;;;;;;;31.87;58.90;94893.81;5071980;28;20945;-52
2023/06/26 08:34:57;;;;;;;1.13;0.60;;;;;;;31.54;57.64;94891.19;5071782;28;20443;-52
2023/06/26 08:37:25;;;;;;;0.57;0.50;;;;;;;31.35;55.98;94893.38;5071889;28;20440;-56
2023/06/26 08:39:54;;;;;;;0.90;0.90;;;;;;;31.49;54.85;94899.88;5071672;28;20441;-58
2023/06/26 08:42:22;;;;;;;0.77;0.77;;;;;;;32.07;55.80;94887.66;5071520;28;20852;-58
2023/06/26 08:44:50;;;;;;;0.80;0.80;;;;;;;32.37;53.42;94893.78;5071657;28;20511;-57
2023/06/26 08:47:30;;;;;;;1.20;1.10;;;;;;;32.45;53.20;94888.94;5072126;28;20444;-58
2023/06/26 08:50:08;;;;;;;0.70;0.70;;;;;;;32.48;50.38;94896.34;5045131;28;20852;-57
2023/06/26 08:52:40;;;;;;;1.13;0.30;;;;;;;32.77;51.27;94891.88;5071896;28;20436;-57
2023/06/26 08:55:11;;;;;;;1.37;0.63;;;;;;;32.63;51.44;94884.72;5071674;28;20796;-57
2023/06/26 08:57:40;;;;;;;0.53;0.53;;;;;;;33.31;50.55;94886.91;5071103;28;20434;-56
2023/06/26 09:00:10;;;;;;;1.00;0.60;;;;;;;33.11;49.76;94883.41;5071423;28;20447;-57
2023/06/26 09:02:40;;;;;;;0.93;0.40;;;;;;;33.56;48.26;94884.41;5071372;28;20445;-57
2023/06/26 09:05:13;;;;;;;3.33;0.53;;;;;;;33.08;48.55;94879.53;5059056;28;20569;-55
2023/06/26 09:07:41;;;;;;;1.67;0.73;;;;;;;32.41;45.01;94875.28;5070959;28;20433;-55
2023/06/26 09:10:11;;;;;;;0.53;0.53;;;;;;;32.08;47.38;94876.25;5070806;28;21000;-55
2023/06/26 09:12:39;;;;;;;0.50;0.40;;;;;;;32.48;46.75;94875.19;5045559;28;20449;-54
2023/06/26 09:15:08;;;;;;;0.70;0.50;;;;;;;33.00;47.41;94863.59;5070677;28;20455;-55
2023/06/26 09:17:41;;;;;;;0.50;0.40;;;;;;;34.11;44.13;94869.75;5071291;28;20527;-55
2023/06/26 09:20:12;;;;;;;0.60;0.60;;;;;;;34.15;43.88;94867.69;5071074;28;20444;-56
2023/06/26 09:22:43;;;;;;;0.40;0.30;;;;;;;32.78;43.59;94862.47;5071966;28;20462;-57
2023/06/26 09:25:11;;;;;;;0.50;0.40;;;;;;;33.08;44.57;94856.78;5071430;28;20479;-56
2023/06/26 09:27:39;;;;;;;0.50;0.50;;;;;;;32.11;45.11;94853.50;5071551;28;20510;-56
2023/06/26 09:30:09;;;;;;;0.67;0.67;;;;;;;32.49;44.91;94851.22;5073335;28;20489;-56
2023/06/26 09:32:37;;;;;;;2.77;0.83;;;;;;;33.08;45.33;94848.53;5075419;28;20436;-56
2023/06/26 09:35:06;;;;;;;1.07;1.03;;;;;;;31.45;46.69;94855.34;5075378;28;20433;-56
2023/06/26 09:37:35;;;;;;;1.13;1.03;;;;;;;31.32;48.10;94850.38;5075299;28;20448;-56
2023/06/26 09:40:06;;;;;;;0.40;0.40;;;;;;;31.96;47.93;94861.16;5075324;28;20861;-56
2023/06/26 09:42:35;;;;;;;3.90;2.20;;;;;;;31.69;47.21;94859.66;5075236;28;20498;-56
2023/06/26 09:45:03;;;;;;;1.03;0.93;;;;;;;30.71;49.03;94863.25;5048823;28;20482;-56
2023/06/26 09:47:32;;;;;;;0.60;0.60;;;;;;;30.59;49.69;94846.59;5074729;28;20819;-56
2023/06/26 09:50:01;;;;;;;2.10;0.93;;;;;;;30.27;51.58;94878.97;5075618;28;20444;-55
2023/06/26 09:52:29;;;;;;;0.57;0.57;;;;;;;30.00;51.12;94840.56;5075008;28;20440;-55
2023/06/26 09:55:14;;;;;;;1.23;0.80;;;;;;;29.86;51.54;94876.97;5075079;28;20452;-56
2023/06/26 09:57:44;;;;;;;0.60;0.40;;;;;;;30.20;50.44;94871.63;5073518;28;20445;-56
2023/06/26 10:00:16;;;;;;;0.50;0.30;;;;;;;30.02;52.88;94881.94;5074959;28;20471;-57
2023/06/26 10:02:44;;;;;;;0.50;0.50;;;;;;;29.17;56.26;94887.16;5074543;28;20441;-55
2023/06/26 10:05:13;;;;;;;0.50;0.50;;;;;;;28.53;58.92;94892.81;5074499;28;20535;-56
2023/06/26 10:07:42;;;;;;;3.23;1.13;;;;;;;27.20;66.57;94899.75;5074244;28;20441;-56
2023/06/26 10:10:12;;;;;;;0.87;0.87;;;;;;;27.26;74.81;94900.16;5074148;28;20437;-57
2023/06/26 10:12:44;;;;;;;0.90;0.50;;;;;;;27.43;81.59;94902.16;5048122;28;20449;-58
2023/06/26 10:15:16;;;;;;;0.70;0.70;;;;;;;26.92;90.84;94908.59;5074544;28;20441;-58
2023/06/26 10:17:47;;;;;;;1.33;0.53;;;;;;;26.53;94.15;94885.88;5075402;28;20480;-57
2023/06/26 10:20:17;;;;;;;2.40;0.60;;;;;;;25.89;100.00;94898.25;5074356;28;20475;-57
2023/06/26 10:22:48;;;;;;;0.50;0.50;;;;;;;26.12;100.00;94906.19;5074658;28;20445;-57
2023/06/26 10:25:20;;;;;;;0.90;0.70;;;;;;;26.16;96.32;94898.88;5070798;28;20534;-56
2023/06/26 10:27:55;;;;;;;0.83;0.70;;;;;;;25.52;96.30;94756.44;5066051;28;20499;-57
2023/06/26 10:30:27;;;;;;;0.70;0.60;;;;;;;26.61;86.14;94892.13;5074109;28;20498;-57
2023/06/26 10:32:57;;;;;;;0.50;0.50;;;;;;;26.93;81.38;94887.63;5074438;28;20460;-56
2023/06/26 10:35:27;;;;;;;3.50;0.60;;;;;;;28.01;79.70;94899.91;5074439;28;20520;-57
2023/06/26 10:38:02;;;;;;;0.40;0.40;;;;;;;29.49;79.03;94896.75;5073317;28;20969;-58
2023/06/26 10:40:42;;;;;;;4.57;0.40;;;;;;;29.98;68.64;94900.31;5074069;28;20467;-57
2023/06/26 10:43:13;;;;;;;2.90;0.97;;;;;;;29.90;67.86;94896.09;5073327;28;20445;-57
2023/06/26 10:45:46;;;;;;;1.40;1.27;;;;;;;30.75;65.39;94891.38;5074390;28;20537;-57
2023/06/26 10:48:16;;;;;;;0.57;0.47;;;;;;;30.63;65.40;94839.94;5073926;28;20988;-57
2023/06/26 10:50:47;;;;;;;0.40;0.40;;;;;;;30.68;64.07;94893.41;5073487;28;20450;-58
2023/06/26 10:53:24;;;;;;;0.87;0.87;;;;;;;30.72;67.39;94905.88;5074251;28;20445;-58
2023/06/26 10:55:59;;;;;;;0.57;0.57;;;;;;;30.65;67.36;94905.16;5073720;28;20813;-58
2023/06/26 10:58:40;;;;;;;4.00;0.63;;;;;;;29.87;70.56;94905.09;5073940;28;20437;-58
2023/06/26 11:01:16;;;;;;;0.80;0.50;;;;;;;28.59;71.98;94912.28;5073570;28;20429;-58
2023/06/26 11:03:49;;;;;;;0.40;0.30;;;;;;;28.37;72.94;94918.94;5073019;28;20448;-58
2023/06/26 11:06:22;;;;;;;0.40;0.40;;;;;;;28.16;70.00;94914.28;5066020;28;20473;-59
2023/06/26 11:08:53;;;;;;;0.30;0.20;;;;;;;27.90;70.92;94942.69;5069300;28;20449;-58
2023/06/26 11:11:22;;;;;;;0.80;0.70;;;;;;;26.87;82.98;94962.59;5073016;28;20471;-59
2023/06/26 11:13:52;;;;;;;0.70;0.50;;;;;;;26.56;90.32;94957.75;5073578;28;20502;-58
2023/06/26 11:16:20;;;;;;;1.17;0.80;;;;;;;26.09;100.00;94950.38;5073578;28;20476;-58
2023/06/26 11:18:50;;;;;;;0.73;0.60;;;;;;;25.99;97.37;94951.06;5073109;28;20476;-58
2023/06/26 11:21:23;;;;;;;1.13;1.13;;;;;;;25.52;100.00;94939.03;5073189;28;20441;-58
2023/06/26 11:23:54;;;;;;;0.50;0.30;;;;;;;25.54;100.00;94942.16;5072574;28;20430;-58
2023/06/26 11:26:22;;;;;;;1.33;0.37;;;;;;;26.07;97.14;94937.19;5073135;28;20558;-57
2023/06/26 11:28:56;;;;;;;0.90;0.90;;;;;;;25.68;100.00;94945.00;5073089;28;20856;-58
2023/06/26 11:31:29;;;;;;;1.83;0.50;;;;;;;25.15;100.00;94936.28;5073517;28;20480;-58
2023/06/26 11:33:59;;;;;;;4.40;0.87;;;;;;;25.57;99.91;94944.13;5073001;28;20430;-58
2023/06/26 11:36:28;;;;;;;1.13;1.13;;;;;;;25.43;97.52;94938.50;5072934;28;20438;-59
2023/06/26 11:38:57;;;;;;;0.60;0.50;;;;;;;25.51;99.17;94942.91;5073148;28;20499;-59
2023/06/26 11:41:28;;;;;;;0.50;0.37;;;;;;;25.60;93.40;94940.66;5072827;28;20437;-59